EST,Max TemperatureF,Mean TemperatureF,Min TemperatureF,Max Dew PointF,MeanDew PointF,Min DewpointF,Max Humidity, Mean Humidity, Min Humidity, Max Sea Level PressureIn, Mean Sea Level PressureIn, Min Sea Level PressureIn, Max VisibilityMiles, Mean VisibilityMiles, Min VisibilityMiles, Max Wind SpeedMPH, Mean Wind SpeedMPH, Max Gust SpeedMPH,PrecipitationIn, CloudCover, Events, WindDirDegrees
2012-12-1,80,68,55,63,57,52,100,68,39,30.29,30.24,30.20,10,10,7,13,5,20,0.00,1,,47
2012-12-2,84,72,60,63,56,48,83,51,30,30.31,30.26,30.21,10,10,7,13,5,18,0.00,2,,60
2012-12-3,82,72,60,68,57,52,100,60,35,30.31,30.26,30.21,10,10,10,12,3,17,0.00,4,,68
2012-12-4,80,70,59,59,53,46,82,53,30,30.32,30.25,30.21,10,10,7,10,4,,0.00,1,,86
2012-12-5,80,68,55,66,58,52,100,65,39,30.22,30.13,30.06,10,10,5,12,3,,0.00,4,,65
2012-12-6,82,72,62,70,60,55,100,61,39,30.08,30.02,29.96,10,10,7,9,4,,0.00,4,,64
2012-12-7,80,71,62,72,63,61,100,73,51,30.06,30.00,29.95,10,7,0,9,5,,0.00,4,Fog,49
2012-12-8,84,74,64,75,66,63,100,67,48,30.10,30.04,30.00,10,6,0,8,3,,0.17,6,Fog-Rain,88
2012-12-9,82,73,64,72,66,63,100,72,51,30.13,30.07,30.04,10,6,0,7,1,,0.01,4,Fog,284
2012-12-10,84,72,60,77,71,68,100,74,66,30.06,29.97,29.87,10,7,0,14,4,24,0.16,5,Fog-Rain,194
2012-12-11,82,76,69,77,72,72,100,76,70,30.06,29.98,29.93,10,6,0,10,4,,0.04,6,Fog-Rain,206
2012-12-12,82,75,68,75,70,68,100,74,65,30.11,30.06,30.02,10,9,1,12,4,,0.28,6,Rain,189
2012-12-13,71,64,57,64,57,54,100,83,77,30.23,30.16,30.09,10,9,1,12,6,18,0.00,8,,6
2012-12-14,66,60,55,61,57,54,100,82,73,30.26,30.20,30.14,10,8,1,13,7,17,0.00,5,,23
2012-12-15,78,66,55,66,62,59,100,70,51,30.19,30.12,30.08,10,7,0,8,3,,0.00,4,Fog,66
2012-12-16,82,70,59,66,61,55,100,59,39,30.09,30.04,29.98,10,8,0,8,2,,0.00,1,Fog,161
2012-12-17,82,70,59,68,63,57,78,57,45,30.01,29.96,29.91,10,9,2,15,4,20,0.00,1,,200
2012-12-18,82,68,53,70,60,55,100,63,45,30.07,29.99,29.92,10,8,1,14,7,21,0.00,4,,264
2012-12-19,78,63,48,55,44,34,100,50,20,30.15,30.10,30.06,10,10,2,8,1,,0.00,0,,71
2012-12-20,84,68,53,73,64,54,100,63,45,30.12,30.04,29.96,10,9,2,16,7,26,0.49,2,Rain,170
2012-12-21,71,56,42,68,39,27,100,56,26,30.25,30.15,29.99,10,10,5,18,11,28,0.01,1,Rain,313
2012-12-22,66,52,37,41,23,3,100,47,9,30.34,30.27,30.23,10,10,10,14,5,16,0.00,0,,337
2012-12-23,68,50,33,46,33,19,100,52,16,30.30,30.24,30.18,10,10,10,10,2,,0.00,0,,75
2012-12-24,69,60,50,57,51,45,100,75,53,30.17,30.10,30.01,10,10,10,10,2,18,0.00,1,Rain,185
2012-12-25,77,65,53,64,58,55,100,68,47,30.06,29.99,29.92,10,10,7,10,4,16,0.00,0,,149
2012-12-26,78,66,53,70,60,48,100,78,57,30.04,29.91,29.83,10,10,2,22,9,32,0.14,5,Rain,235
2012-12-27,66,54,41,48,41,36,100,69,34,30.15,30.09,30.04,10,10,4,10,4,,0.00,0,,335
2012-12-28,75,58,41,64,48,43,100,52,33,30.14,30.06,29.96,10,7,2,13,3,,0.36,3,Rain,101
2012-12-29,77,66,53,66,54,46,88,73,56,30.19,30.01,29.91,10,8,3,21,10,28,0.13,5,Rain,254
2012-12-30,57,48,39,45,36,30,87,67,36,30.39,30.33,30.20,10,10,10,14,9,20,0.00,0,,19
2012-12-31,75,60,44,55,51,43,100,68,41,30.37,30.30,30.22,10,10,5,12,4,17,0.00,0,,72